sensor_id;sensor_type;location;lat;lon;timestamp;P1;durP1;ratioP1;P2;durP2;ratioP2
21837;SDS011;11081;45.946;6.140;2022-10-04T00:02:23;3.50;;;2.15;;
21837;SDS011;11081;45.946;6.140;2022-10-04T00:04:56;5.22;;;2.17;;
21837;SDS011;11081;45.946;6.140;2022-10-04T00:07:30;4.63;;;2.67;;
21837;SDS011;11081;45.946;6.140;2022-10-04T00:10:03;10.43;;;3.60;;
21837;SDS011;11081;45.946;6.140;2022-10-04T00:12:37;7.43;;;3.30;;
21837;SDS011;11081;45.946;6.140;2022-10-04T00:15:16;8.32;;;3.05;;
21837;SDS011;11081;45.946;6.140;2022-10-04T00:18:00;4.32;;;2.58;;
21837;SDS011;11081;45.946;6.140;2022-10-04T00:23:39;3.80;;;2.50;;
21837;SDS011;11081;45.946;6.140;2022-10-04T00:29:38;4.43;;;2.72;;
21837;SDS011;11081;45.946;6.140;2022-10-04T00:32:27;3.35;;;2.42;;
21837;SDS011;11081;45.946;6.140;2022-10-04T00:34:57;10.13;;;2.60;;
21837;SDS011;11081;45.946;6.140;2022-10-04T00:37:26;7.72;;;2.78;;
21837;SDS011;11081;45.946;6.140;2022-10-04T00:40:15;5.82;;;2.53;;
21837;SDS011;11081;45.946;6.140;2022-10-04T00:42:49;6.88;;;2.50;;
21837;SDS011;11081;45.946;6.140;2022-10-04T00:45:27;3.08;;;2.13;;
21837;SDS011;11081;45.946;6.140;2022-10-04T00:48:02;5.25;;;2.40;;
21837;SDS011;11081;45.946;6.140;2022-10-04T00:50:47;3.55;;;1.90;;
21837;SDS011;11081;45.946;6.140;2022-10-04T00:53:22;4.38;;;2.45;;
21837;SDS011;11081;45.946;6.140;2022-10-04T00:56:03;5.15;;;2.22;;
21837;SDS011;11081;45.946;6.140;2022-10-04T00:58:38;3.97;;;2.25;;
21837;SDS011;11081;45.946;6.140;2022-10-04T01:01:16;7.32;;;2.15;;
21837;SDS011;11081;45.946;6.140;2022-10-04T01:03:49;6.85;;;2.40;;
21837;SDS011;11081;45.946;6.140;2022-10-04T01:06:20;3.33;;;2.40;;
21837;SDS011;11081;45.946;6.140;2022-10-04T01:08:49;6.13;;;2.50;;
21837;SDS011;11081;45.946;6.140;2022-10-04T01:11:21;3.88;;;2.38;;
21837;SDS011;11081;45.946;6.140;2022-10-04T01:13:54;5.22;;;2.08;;
21837;SDS011;11081;45.946;6.140;2022-10-04T01:16:26;4.00;;;2.03;;
21837;SDS011;11081;45.946;6.140;2022-10-04T01:18:55;4.97;;;2.20;;
21837;SDS011;11081;45.946;6.140;2022-10-04T01:21:57;5.18;;;1.90;;
21837;SDS011;11081;45.946;6.140;2022-10-04T01:24:33;2.90;;;2.05;;
21837;SDS011;11081;45.946;6.140;2022-10-04T01:27:02;4.20;;;2.53;;
21837;SDS011;11081;45.946;6.140;2022-10-04T01:29:31;3.15;;;2.00;;
21837;SDS011;11081;45.946;6.140;2022-10-04T01:31:59;6.00;;;2.30;;
21837;SDS011;11081;45.946;6.140;2022-10-04T01:34:28;3.15;;;2.15;;
21837;SDS011;11081;45.946;6.140;2022-10-04T01:36:58;4.70;;;2.28;;
21837;SDS011;11081;45.946;6.140;2022-10-04T01:39:27;4.18;;;2.00;;
21837;SDS011;11081;45.946;6.140;2022-10-04T01:41:58;3.60;;;2.00;;
21837;SDS011;11081;45.946;6.140;2022-10-04T01:44:32;4.47;;;2.17;;
21837;SDS011;11081;45.946;6.140;2022-10-04T01:47:07;4.22;;;2.00;;
21837;SDS011;11081;45.946;6.140;2022-10-04T01:49:40;6.35;;;1.80;;
21837;SDS011;11081;45.946;6.140;2022-10-04T01:52:12;5.40;;;2.03;;
21837;SDS011;11081;45.946;6.140;2022-10-04T01:54:44;5.90;;;2.03;;
21837;SDS011;11081;45.946;6.140;2022-10-04T01:57:18;6.45;;;2.00;;
21837;SDS011;11081;45.946;6.140;2022-10-04T01:59:50;2.95;;;1.83;;
21837;SDS011;11081;45.946;6.140;2022-10-04T02:02:24;2.97;;;2.08;;
21837;SDS011;11081;45.946;6.140;2022-10-04T02:04:57;6.40;;;2.47;;
21837;SDS011;11081;45.946;6.140;2022-10-04T02:07:27;4.95;;;2.22;;
21837;SDS011;11081;45.946;6.140;2022-10-04T02:09:59;3.88;;;2.10;;
21837;SDS011;11081;45.946;6.140;2022-10-04T02:12:32;3.33;;;1.98;;
21837;SDS011;11081;45.946;6.140;2022-10-04T02:15:05;3.60;;;1.98;;
21837;SDS011;11081;45.946;6.140;2022-10-04T02:17:36;2.78;;;1.77;;
21837;SDS011;11081;45.946;6.140;2022-10-04T02:20:09;4.18;;;1.98;;
21837;SDS011;11081;45.946;6.140;2022-10-04T02:22:41;4.13;;;1.88;;
21837;SDS011;11081;45.946;6.140;2022-10-04T02:25:11;3.55;;;1.70;;
21837;SDS011;11081;45.946;6.140;2022-10-04T02:27:42;4.78;;;1.92;;
21837;SDS011;11081;45.946;6.140;2022-10-04T02:30:11;3.03;;;1.88;;
21837;SDS011;11081;45.946;6.140;2022-10-04T02:32:40;2.85;;;1.65;;
21837;SDS011;11081;45.946;6.140;2022-10-04T02:35:26;3.28;;;1.65;;
21837;SDS011;11081;45.946;6.140;2022-10-04T02:38:06;4.47;;;1.50;;
21837;SDS011;11081;45.946;6.140;2022-10-04T02:40:39;4.22;;;1.95;;
21837;SDS011;11081;45.946;6.140;2022-10-04T02:43:16;2.60;;;1.83;;
21837;SDS011;11081;45.946;6.140;2022-10-04T02:45:49;2.97;;;1.70;;
21837;SDS011;11081;45.946;6.140;2022-10-04T02:48:25;4.85;;;1.95;;
21837;SDS011;11081;45.946;6.140;2022-10-04T02:50:59;5.53;;;1.80;;
21837;SDS011;11081;45.946;6.140;2022-10-04T02:53:35;4.00;;;1.85;;
21837;SDS011;11081;45.946;6.140;2022-10-04T02:56:12;4.47;;;1.85;;
21837;SDS011;11081;45.946;6.140;2022-10-04T02:58:42;2.10;;;1.50;;
21837;SDS011;11081;45.946;6.140;2022-10-04T03:01:13;1.70;;;1.60;;
21837;SDS011;11081;45.946;6.140;2022-10-04T03:03:50;5.20;;;1.70;;
21837;SDS011;11081;45.946;6.140;2022-10-04T03:06:20;3.63;;;1.95;;
21837;SDS011;11081;45.946;6.140;2022-10-04T03:08:55;3.63;;;1.60;;
21837;SDS011;11081;45.946;6.140;2022-10-04T03:11:26;1.80;;;1.42;;
21837;SDS011;11081;45.946;6.140;2022-10-04T03:13:59;2.70;;;1.60;;
21837;SDS011;11081;45.946;6.140;2022-10-04T03:16:32;3.33;;;1.70;;
21837;SDS011;11081;45.946;6.140;2022-10-04T03:19:02;2.15;;;1.48;;
21837;SDS011;11081;45.946;6.140;2022-10-04T03:21:32;3.88;;;1.73;;
21837;SDS011;11081;45.946;6.140;2022-10-04T03:24:02;3.10;;;1.58;;
21837;SDS011;11081;45.946;6.140;2022-10-04T03:26:33;2.67;;;1.52;;
21837;SDS011;11081;45.946;6.140;2022-10-04T03:29:06;3.08;;;1.80;;
21837;SDS011;11081;45.946;6.140;2022-10-04T03:31:36;4.85;;;2.00;;
21837;SDS011;11081;45.946;6.140;2022-10-04T03:34:12;6.63;;;1.60;;
21837;SDS011;11081;45.946;6.140;2022-10-04T03:36:41;3.58;;;1.75;;
21837;SDS011;11081;45.946;6.140;2022-10-04T03:39:10;1.63;;;1.40;;
21837;SDS011;11081;45.946;6.140;2022-10-04T03:41:44;4.97;;;2.08;;
21837;SDS011;11081;45.946;6.140;2022-10-04T03:44:14;4.70;;;1.90;;
21837;SDS011;11081;45.946;6.140;2022-10-04T03:46:45;8.18;;;2.47;;
21837;SDS011;11081;45.946;6.140;2022-10-04T03:49:14;6.28;;;1.90;;
21837;SDS011;11081;45.946;6.140;2022-10-04T03:51:48;8.90;;;1.92;;
21837;SDS011;11081;45.946;6.140;2022-10-04T03:54:19;3.88;;;1.83;;
21837;SDS011;11081;45.946;6.140;2022-10-04T03:56:53;4.88;;;1.98;;
21837;SDS011;11081;45.946;6.140;2022-10-04T03:59:24;4.07;;;1.85;;
21837;SDS011;11081;45.946;6.140;2022-10-04T04:01:58;6.20;;;2.00;;
21837;SDS011;11081;45.946;6.140;2022-10-04T04:04:34;5.03;;;1.95;;
21837;SDS011;11081;45.946;6.140;2022-10-04T04:07:10;5.63;;;2.13;;
21837;SDS011;11081;45.946;6.140;2022-10-04T04:09:42;5.40;;;2.17;;
21837;SDS011;11081;45.946;6.140;2022-10-04T04:12:13;3.50;;;1.95;;
21837;SDS011;11081;45.946;6.140;2022-10-04T04:14:47;3.40;;;1.83;;
21837;SDS011;11081;45.946;6.140;2022-10-04T04:17:27;3.17;;;1.83;;
21837;SDS011;11081;45.946;6.140;2022-10-04T04:20:02;7.30;;;1.88;;
21837;SDS011;11081;45.946;6.140;2022-10-04T04:22:34;4.60;;;1.90;;
21837;SDS011;11081;45.946;6.140;2022-10-04T04:25:03;5.10;;;2.03;;
21837;SDS011;11081;45.946;6.140;2022-10-04T04:27:38;8.43;;;2.05;;
21837;SDS011;11081;45.946;6.140;2022-10-04T04:30:13;2.33;;;1.60;;
21837;SDS011;11081;45.946;6.140;2022-10-04T04:32:44;3.03;;;1.80;;
21837;SDS011;11081;45.946;6.140;2022-10-04T04:35:20;4.28;;;1.95;;
21837;SDS011;11081;45.946;6.140;2022-10-04T04:38:09;6.05;;;2.22;;
21837;SDS011;11081;45.946;6.140;2022-10-04T04:40:43;2.90;;;1.90;;
21837;SDS011;11081;45.946;6.140;2022-10-04T04:43:12;5.05;;;1.90;;
21837;SDS011;11081;45.946;6.140;2022-10-04T04:45:46;1.98;;;1.70;;
21837;SDS011;11081;45.946;6.140;2022-10-04T04:48:35;7.50;;;1.90;;
21837;SDS011;11081;45.946;6.140;2022-10-04T04:51:04;4.15;;;2.20;;
21837;SDS011;11081;45.946;6.140;2022-10-04T04:53:32;5.20;;;2.40;;
21837;SDS011;11081;45.946;6.140;2022-10-04T04:56:01;4.30;;;3.42;;
21837;SDS011;11081;45.946;6.140;2022-10-04T04:58:37;6.28;;;3.63;;
21837;SDS011;11081;45.946;6.140;2022-10-04T05:01:14;4.68;;;3.55;;
21837;SDS011;11081;45.946;6.140;2022-10-04T05:03:58;4.03;;;3.20;;
21837;SDS011;11081;45.946;6.140;2022-10-04T05:06:27;5.13;;;3.47;;
21837;SDS011;11081;45.946;6.140;2022-10-04T05:08:56;4.00;;;2.75;;
21837;SDS011;11081;45.946;6.140;2022-10-04T05:11:25;3.17;;;2.50;;
21837;SDS011;11081;45.946;6.140;2022-10-04T05:13:57;7.63;;;2.85;;
21837;SDS011;11081;45.946;6.140;2022-10-04T05:16:30;3.97;;;2.75;;
21837;SDS011;11081;45.946;6.140;2022-10-04T05:19:04;7.57;;;3.22;;
21837;SDS011;11081;45.946;6.140;2022-10-04T05:21:36;3.60;;;2.63;;
21837;SDS011;11081;45.946;6.140;2022-10-04T05:24:08;7.75;;;2.42;;
21837;SDS011;11081;45.946;6.140;2022-10-04T05:26:39;6.15;;;2.90;;
21837;SDS011;11081;45.946;6.140;2022-10-04T05:29:11;4.13;;;2.90;;
21837;SDS011;11081;45.946;6.140;2022-10-04T05:31:47;7.20;;;2.50;;
21837;SDS011;11081;45.946;6.140;2022-10-04T05:34:22;5.15;;;2.80;;
21837;SDS011;11081;45.946;6.140;2022-10-04T05:36:57;10.13;;;3.25;;
21837;SDS011;11081;45.946;6.140;2022-10-04T05:39:45;7.13;;;2.67;;
21837;SDS011;11081;45.946;6.140;2022-10-04T05:42:20;5.10;;;3.25;;
21837;SDS011;11081;45.946;6.140;2022-10-04T05:44:53;5.40;;;2.55;;
21837;SDS011;11081;45.946;6.140;2022-10-04T05:47:24;5.75;;;3.10;;
21837;SDS011;11081;45.946;6.140;2022-10-04T05:49:55;6.20;;;3.05;;
21837;SDS011;11081;45.946;6.140;2022-10-04T05:52:27;4.88;;;3.20;;
21837;SDS011;11081;45.946;6.140;2022-10-04T05:55:15;4.97;;;2.97;;
21837;SDS011;11081;45.946;6.140;2022-10-04T05:57:57;6.20;;;2.80;;
21837;SDS011;11081;45.946;6.140;2022-10-04T06:01:05;8.50;;;2.90;;
21837;SDS011;11081;45.946;6.140;2022-10-04T06:03:50;6.15;;;2.67;;
21837;SDS011;11081;45.946;6.140;2022-10-04T06:06:34;6.13;;;2.75;;
21837;SDS011;11081;45.946;6.140;2022-10-04T06:09:09;5.57;;;2.85;;
21837;SDS011;11081;45.946;6.140;2022-10-04T06:11:52;8.23;;;3.20;;
21837;SDS011;11081;45.946;6.140;2022-10-04T06:14:35;7.00;;;3.40;;
21837;SDS011;11081;45.946;6.140;2022-10-04T06:17:23;4.25;;;3.13;;
21837;SDS011;11081;45.946;6.140;2022-10-04T06:20:08;4.68;;;3.03;;
21837;SDS011;11081;45.946;6.140;2022-10-04T06:23:04;13.90;;;3.20;;
21837;SDS011;11081;45.946;6.140;2022-10-04T06:25:39;5.25;;;3.10;;
21837;SDS011;11081;45.946;6.140;2022-10-04T06:28:14;5.18;;;3.00;;
21837;SDS011;11081;45.946;6.140;2022-10-04T06:30:50;4.95;;;3.45;;
21837;SDS011;11081;45.946;6.140;2022-10-04T06:33:41;7.60;;;3.60;;
21837;SDS011;11081;45.946;6.140;2022-10-04T06:36:37;6.30;;;3.70;;
21837;SDS011;11081;45.946;6.140;2022-10-04T06:39:32;6.13;;;3.35;;
21837;SDS011;11081;45.946;6.140;2022-10-04T06:42:26;4.95;;;3.17;;
21837;SDS011;11081;45.946;6.140;2022-10-04T06:45:14;6.50;;;3.35;;
21837;SDS011;11081;45.946;6.140;2022-10-04T06:47:59;7.05;;;3.90;;
21837;SDS011;11081;45.946;6.140;2022-10-04T06:50:46;6.32;;;3.63;;
21837;SDS011;11081;45.946;6.140;2022-10-04T06:53:22;5.68;;;3.63;;
21837;SDS011;11081;45.946;6.140;2022-10-04T06:55:59;6.07;;;3.75;;
21837;SDS011;11081;45.946;6.140;2022-10-04T07:01:46;5.85;;;3.40;;
21837;SDS011;11081;45.946;6.140;2022-10-04T07:04:20;4.30;;;3.20;;
21837;SDS011;11081;45.946;6.140;2022-10-04T07:07:16;5.72;;;3.17;;
21837;SDS011;11081;45.946;6.140;2022-10-04T07:09:55;5.55;;;3.25;;
21837;SDS011;11081;45.946;6.140;2022-10-04T07:12:28;4.13;;;2.83;;
21837;SDS011;11081;45.946;6.140;2022-10-04T07:15:01;4.00;;;2.67;;
21837;SDS011;11081;45.946;6.140;2022-10-04T07:17:36;8.00;;;3.08;;
21837;SDS011;11081;45.946;6.140;2022-10-04T07:20:12;3.88;;;2.47;;
21837;SDS011;11081;45.946;6.140;2022-10-04T07:22:49;4.03;;;2.50;;
21837;SDS011;11081;45.946;6.140;2022-10-04T07:25:25;3.45;;;2.65;;
21837;SDS011;11081;45.946;6.140;2022-10-04T07:27:57;3.78;;;2.70;;
21837;SDS011;11081;45.946;6.140;2022-10-04T07:30:48;6.95;;;3.35;;
21837;SDS011;11081;45.946;6.140;2022-10-04T07:33:23;5.90;;;3.13;;
21837;SDS011;11081;45.946;6.140;2022-10-04T07:35:54;7.13;;;2.92;;
21837;SDS011;11081;45.946;6.140;2022-10-04T07:38:30;5.57;;;3.10;;
21837;SDS011;11081;45.946;6.140;2022-10-04T07:41:03;3.60;;;2.88;;
21837;SDS011;11081;45.946;6.140;2022-10-04T07:43:38;4.13;;;3.00;;
21837;SDS011;11081;45.946;6.140;2022-10-04T07:46:18;3.95;;;2.50;;
21837;SDS011;11081;45.946;6.140;2022-10-04T07:48:50;3.53;;;2.80;;
21837;SDS011;11081;45.946;6.140;2022-10-04T07:51:18;6.13;;;2.85;;
21837;SDS011;11081;45.946;6.140;2022-10-04T07:53:54;6.35;;;3.00;;
21837;SDS011;11081;45.946;6.140;2022-10-04T07:56:32;6.65;;;2.90;;
21837;SDS011;11081;45.946;6.140;2022-10-04T07:59:21;4.80;;;2.70;;
21837;SDS011;11081;45.946;6.140;2022-10-04T08:02:00;3.88;;;2.70;;
21837;SDS011;11081;45.946;6.140;2022-10-04T08:04:38;5.45;;;3.15;;
21837;SDS011;11081;45.946;6.140;2022-10-04T08:07:16;4.68;;;2.70;;
21837;SDS011;11081;45.946;6.140;2022-10-04T08:09:51;4.45;;;2.55;;
21837;SDS011;11081;45.946;6.140;2022-10-04T08:12:33;6.10;;;2.88;;
21837;SDS011;11081;45.946;6.140;2022-10-04T08:15:16;3.00;;;2.28;;
21837;SDS011;11081;45.946;6.140;2022-10-04T08:18:04;6.22;;;2.72;;
21837;SDS011;11081;45.946;6.140;2022-10-04T08:20:45;4.25;;;2.60;;
21837;SDS011;11081;45.946;6.140;2022-10-04T08:23:23;5.72;;;2.15;;
21837;SDS011;11081;45.946;6.140;2022-10-04T08:26:12;7.15;;;2.83;;
21837;SDS011;11081;45.946;6.140;2022-10-04T08:28:57;4.35;;;2.10;;
21837;SDS011;11081;45.946;6.140;2022-10-04T08:32:00;4.75;;;2.40;;
21837;SDS011;11081;45.946;6.140;2022-10-04T08:34:43;3.22;;;2.20;;
21837;SDS011;11081;45.946;6.140;2022-10-04T08:37:24;9.15;;;2.47;;
21837;SDS011;11081;45.946;6.140;2022-10-04T08:40:14;3.90;;;2.78;;
21837;SDS011;11081;45.946;6.140;2022-10-04T08:52:44;5.93;;;2.53;;
21837;SDS011;11081;45.946;6.140;2022-10-04T08:55:30;5.10;;;2.15;;
21837;SDS011;11081;45.946;6.140;2022-10-04T08:58:11;3.10;;;2.10;;
21837;SDS011;11081;45.946;6.140;2022-10-04T09:00:49;2.60;;;2.20;;
21837;SDS011;11081;45.946;6.140;2022-10-04T09:03:53;3.35;;;1.83;;
21837;SDS011;11081;45.946;6.140;2022-10-04T09:06:47;4.68;;;2.20;;
21837;SDS011;11081;45.946;6.140;2022-10-04T09:12:33;4.75;;;2.25;;
21837;SDS011;11081;45.946;6.140;2022-10-04T09:15:15;6.35;;;2.53;;
21837;SDS011;11081;45.946;6.140;2022-10-04T09:17:55;5.75;;;2.63;;
21837;SDS011;11081;45.946;6.140;2022-10-04T09:20:37;5.40;;;2.70;;
21837;SDS011;11081;45.946;6.140;2022-10-04T09:23:33;4.60;;;2.80;;
21837;SDS011;11081;45.946;6.140;2022-10-04T09:26:21;5.40;;;2.88;;
21837;SDS011;11081;45.946;6.140;2022-10-04T09:35:10;5.63;;;2.03;;
21837;SDS011;11081;45.946;6.140;2022-10-04T09:38:13;6.47;;;2.40;;
21837;SDS011;11081;45.946;6.140;2022-10-04T09:47:03;5.82;;;2.28;;
21837;SDS011;11081;45.946;6.140;2022-10-04T09:52:53;11.52;;;2.40;;
21837;SDS011;11081;45.946;6.140;2022-10-04T09:55:34;3.45;;;2.10;;
21837;SDS011;11081;45.946;6.140;2022-10-04T09:58:21;3.03;;;2.10;;
21837;SDS011;11081;45.946;6.140;2022-10-04T10:01:04;3.38;;;1.95;;
21837;SDS011;11081;45.946;6.140;2022-10-04T10:03:45;7.63;;;2.53;;
21837;SDS011;11081;45.946;6.140;2022-10-04T10:06:35;3.70;;;2.30;;
21837;SDS011;11081;45.946;6.140;2022-10-04T10:09:19;4.78;;;1.95;;
21837;SDS011;11081;45.946;6.140;2022-10-04T10:15:23;3.15;;;2.05;;
21837;SDS011;11081;45.946;6.140;2022-10-04T10:18:01;5.63;;;1.85;;
21837;SDS011;11081;45.946;6.140;2022-10-04T10:20:53;4.28;;;2.20;;
21837;SDS011;11081;45.946;6.140;2022-10-04T10:27:14;4.80;;;2.10;;
21837;SDS011;11081;45.946;6.140;2022-10-04T10:33:10;4.85;;;2.35;;
21837;SDS011;11081;45.946;6.140;2022-10-04T10:42:03;2.45;;;2.08;;
21837;SDS011;11081;45.946;6.140;2022-10-04T10:44:47;2.70;;;1.92;;
21837;SDS011;11081;45.946;6.140;2022-10-04T10:47:38;2.97;;;1.90;;
21837;SDS011;11081;45.946;6.140;2022-10-04T10:50:17;1.80;;;1.63;;
21837;SDS011;11081;45.946;6.140;2022-10-04T10:59:37;8.18;;;2.33;;
21837;SDS011;11081;45.946;6.140;2022-10-04T11:09:13;5.70;;;2.10;;
21837;SDS011;11081;45.946;6.140;2022-10-04T11:18:11;3.50;;;2.20;;
21837;SDS011;11081;45.946;6.140;2022-10-04T11:21:19;7.97;;;2.00;;
21837;SDS011;11081;45.946;6.140;2022-10-04T11:27:03;5.55;;;1.98;;
21837;SDS011;11081;45.946;6.140;2022-10-04T11:29:47;4.18;;;1.92;;
21837;SDS011;11081;45.946;6.140;2022-10-04T11:35:50;4.50;;;2.20;;
21837;SDS011;11081;45.946;6.140;2022-10-04T11:41:40;5.97;;;1.80;;
21837;SDS011;11081;45.946;6.140;2022-10-04T11:44:29;4.13;;;2.10;;
21837;SDS011;11081;45.946;6.140;2022-10-04T11:47:13;4.38;;;1.63;;
21837;SDS011;11081;45.946;6.140;2022-10-04T11:50:02;3.85;;;1.83;;
21837;SDS011;11081;45.946;6.140;2022-10-04T11:53:01;1.90;;;1.63;;
21837;SDS011;11081;45.946;6.140;2022-10-04T11:56:02;4.85;;;1.65;;
21837;SDS011;11081;45.946;6.140;2022-10-04T11:58:53;2.83;;;1.85;;
21837;SDS011;11081;45.946;6.140;2022-10-04T12:01:48;1.70;;;1.60;;
21837;SDS011;11081;45.946;6.140;2022-10-04T12:04:41;5.63;;;2.20;;
21837;SDS011;11081;45.946;6.140;2022-10-04T12:07:39;3.85;;;1.70;;
21837;SDS011;11081;45.946;6.140;2022-10-04T12:10:21;2.40;;;1.70;;
21837;SDS011;11081;45.946;6.140;2022-10-04T12:16:21;8.52;;;2.08;;
21837;SDS011;11081;45.946;6.140;2022-10-04T12:19:15;5.82;;;1.85;;
21837;SDS011;11081;45.946;6.140;2022-10-04T12:22:15;5.25;;;2.22;;
21837;SDS011;11081;45.946;6.140;2022-10-04T12:27:58;2.95;;;1.70;;
21837;SDS011;11081;45.946;6.140;2022-10-04T12:33:45;2.10;;;1.60;;
21837;SDS011;11081;45.946;6.140;2022-10-04T12:36:24;4.47;;;2.28;;
21837;SDS011;11081;45.946;6.140;2022-10-04T12:39:07;3.65;;;2.50;;
21837;SDS011;11081;45.946;6.140;2022-10-04T12:41:48;4.97;;;1.88;;
21837;SDS011;11081;45.946;6.140;2022-10-04T12:44:27;5.95;;;1.80;;
21837;SDS011;11081;45.946;6.140;2022-10-04T12:47:30;6.35;;;1.83;;
21837;SDS011;11081;45.946;6.140;2022-10-04T12:50:23;4.85;;;2.10;;
21837;SDS011;11081;45.946;6.140;2022-10-04T12:53:03;5.47;;;1.80;;
21837;SDS011;11081;45.946;6.140;2022-10-04T12:55:46;5.45;;;2.45;;
21837;SDS011;11081;45.946;6.140;2022-10-04T12:58:26;3.53;;;2.00;;
21837;SDS011;11081;45.946;6.140;2022-10-04T13:01:03;6.28;;;1.88;;
21837;SDS011;11081;45.946;6.140;2022-10-04T13:03:42;10.60;;;1.85;;
21837;SDS011;11081;45.946;6.140;2022-10-04T13:06:32;6.93;;;1.80;;
21837;SDS011;11081;45.946;6.140;2022-10-04T13:09:16;10.23;;;1.70;;
21837;SDS011;11081;45.946;6.140;2022-10-04T13:11:56;7.05;;;1.70;;
21837;SDS011;11081;45.946;6.140;2022-10-04T13:17:42;4.88;;;1.67;;
21837;SDS011;11081;45.946;6.140;2022-10-04T13:20:19;2.88;;;1.50;;
21837;SDS011;11081;45.946;6.140;2022-10-04T13:23:00;3.15;;;2.08;;
21837;SDS011;11081;45.946;6.140;2022-10-04T13:25:44;5.22;;;1.38;;
21837;SDS011;11081;45.946;6.140;2022-10-04T13:28:30;5.65;;;1.92;;
21837;SDS011;11081;45.946;6.140;2022-10-04T13:31:04;4.43;;;1.80;;
21837;SDS011;11081;45.946;6.140;2022-10-04T13:33:39;7.35;;;1.88;;
21837;SDS011;11081;45.946;6.140;2022-10-04T13:36:15;4.15;;;1.98;;
21837;SDS011;11081;45.946;6.140;2022-10-04T13:38:57;4.78;;;1.67;;
21837;SDS011;11081;45.946;6.140;2022-10-04T13:41:59;1.95;;;1.30;;
21837;SDS011;11081;45.946;6.140;2022-10-04T13:44:46;1.40;;;1.10;;
21837;SDS011;11081;45.946;6.140;2022-10-04T13:47:33;4.47;;;1.65;;
21837;SDS011;11081;45.946;6.140;2022-10-04T13:50:25;2.67;;;1.15;;
21837;SDS011;11081;45.946;6.140;2022-10-04T13:53:03;4.78;;;1.20;;
21837;SDS011;11081;45.946;6.140;2022-10-04T13:56:02;3.72;;;1.20;;
21837;SDS011;11081;45.946;6.140;2022-10-04T13:58:51;1.95;;;1.20;;
21837;SDS011;11081;45.946;6.140;2022-10-04T14:01:50;2.78;;;0.98;;
21837;SDS011;11081;45.946;6.140;2022-10-04T14:07:48;1.40;;;1.10;;
21837;SDS011;11081;45.946;6.140;2022-10-04T14:13:46;2.17;;;1.17;;
21837;SDS011;11081;45.946;6.140;2022-10-04T14:16:35;3.53;;;1.35;;
21837;SDS011;11081;45.946;6.140;2022-10-04T14:22:29;4.28;;;1.30;;
21837;SDS011;11081;45.946;6.140;2022-10-04T14:31:46;2.97;;;1.00;;
21837;SDS011;11081;45.946;6.140;2022-10-04T14:37:41;1.58;;;1.02;;
21837;SDS011;11081;45.946;6.140;2022-10-04T14:43:43;1.00;;;0.90;;
21837;SDS011;11081;45.946;6.140;2022-10-04T14:46:40;2.97;;;1.00;;
21837;SDS011;11081;45.946;6.140;2022-10-04T14:49:20;3.47;;;0.90;;
21837;SDS011;11081;45.946;6.140;2022-10-04T14:52:09;1.33;;;0.77;;
21837;SDS011;11081;45.946;6.140;2022-10-04T14:54:51;1.23;;;1.00;;
21837;SDS011;11081;45.946;6.140;2022-10-04T14:57:24;1.52;;;0.98;;
21837;SDS011;11081;45.946;6.140;2022-10-04T15:00:16;1.73;;;0.88;;
21837;SDS011;11081;45.946;6.140;2022-10-04T15:03:05;1.45;;;0.80;;
21837;SDS011;11081;45.946;6.140;2022-10-04T15:08:54;4.13;;;0.90;;
21837;SDS011;11081;45.946;6.140;2022-10-04T15:11:39;3.60;;;1.02;;
21837;SDS011;11081;45.946;6.140;2022-10-04T15:14:40;2.30;;;0.73;;
21837;SDS011;11081;45.946;6.140;2022-10-04T15:17:23;2.42;;;0.95;;
21837;SDS011;11081;45.946;6.140;2022-10-04T15:20:01;2.35;;;0.70;;
21837;SDS011;11081;45.946;6.140;2022-10-04T15:22:37;2.92;;;0.90;;
21837;SDS011;11081;45.946;6.140;2022-10-04T15:28:05;1.60;;;0.80;;
21837;SDS011;11081;45.946;6.140;2022-10-04T15:30:46;3.90;;;1.23;;
21837;SDS011;11081;45.946;6.140;2022-10-04T15:33:24;2.28;;;0.90;;
21837;SDS011;11081;45.946;6.140;2022-10-04T15:39:24;3.53;;;0.90;;
21837;SDS011;11081;45.946;6.140;2022-10-04T15:42:08;3.42;;;0.88;;
21837;SDS011;11081;45.946;6.140;2022-10-04T15:47:59;2.17;;;0.82;;
21837;SDS011;11081;45.946;6.140;2022-10-04T15:50:39;1.73;;;0.80;;
21837;SDS011;11081;45.946;6.140;2022-10-04T15:53:37;3.28;;;1.00;;
21837;SDS011;11081;45.946;6.140;2022-10-04T15:56:22;2.58;;;0.85;;
21837;SDS011;11081;45.946;6.140;2022-10-04T15:59:05;3.58;;;0.98;;
21837;SDS011;11081;45.946;6.140;2022-10-04T16:01:50;2.03;;;0.80;;
21837;SDS011;11081;45.946;6.140;2022-10-04T16:04:37;3.95;;;0.82;;
21837;SDS011;11081;45.946;6.140;2022-10-04T16:10:11;3.35;;;0.90;;
21837;SDS011;11081;45.946;6.140;2022-10-04T16:19:16;5.03;;;1.23;;
21837;SDS011;11081;45.946;6.140;2022-10-04T16:22:07;3.22;;;1.15;;
21837;SDS011;11081;45.946;6.140;2022-10-04T16:24:44;1.25;;;0.90;;
21837;SDS011;11081;45.946;6.140;2022-10-04T16:30:23;2.53;;;1.30;;
21837;SDS011;11081;45.946;6.140;2022-10-04T16:33:05;4.38;;;2.05;;
21837;SDS011;11081;45.946;6.140;2022-10-04T16:36:04;4.97;;;1.40;;
21837;SDS011;11081;45.946;6.140;2022-10-04T16:38:42;3.72;;;1.60;;
21837;SDS011;11081;45.946;6.140;2022-10-04T16:41:34;2.60;;;1.20;;
21837;SDS011;11081;45.946;6.140;2022-10-04T16:44:21;4.20;;;1.20;;
21837;SDS011;11081;45.946;6.140;2022-10-04T16:46:57;7.90;;;1.00;;
21837;SDS011;11081;45.946;6.140;2022-10-04T16:49:30;3.55;;;0.88;;
21837;SDS011;11081;45.946;6.140;2022-10-04T16:52:13;2.75;;;1.10;;
21837;SDS011;11081;45.946;6.140;2022-10-04T16:54:58;4.35;;;0.90;;
21837;SDS011;11081;45.946;6.140;2022-10-04T16:57:37;2.75;;;0.98;;
21837;SDS011;11081;45.946;6.140;2022-10-04T17:03:09;12.15;;;3.78;;
21837;SDS011;11081;45.946;6.140;2022-10-04T17:06:01;3.95;;;1.02;;
21837;SDS011;11081;45.946;6.140;2022-10-04T17:08:47;4.97;;;1.30;;
21837;SDS011;11081;45.946;6.140;2022-10-04T17:11:28;2.42;;;0.90;;
21837;SDS011;11081;45.946;6.140;2022-10-04T17:14:18;4.57;;;0.85;;
21837;SDS011;11081;45.946;6.140;2022-10-04T17:17:01;1.92;;;0.80;;
21837;SDS011;11081;45.946;6.140;2022-10-04T17:19:38;5.78;;;1.33;;
21837;SDS011;11081;45.946;6.140;2022-10-04T17:22:22;2.25;;;1.10;;
21837;SDS011;11081;45.946;6.140;2022-10-04T17:25:00;6.88;;;1.20;;
21837;SDS011;11081;45.946;6.140;2022-10-04T17:27:43;2.47;;;1.35;;
21837;SDS011;11081;45.946;6.140;2022-10-04T17:30:15;3.35;;;1.08;;
21837;SDS011;11081;45.946;6.140;2022-10-04T17:32:55;4.63;;;1.10;;
21837;SDS011;11081;45.946;6.140;2022-10-04T17:38:27;2.15;;;0.90;;
21837;SDS011;11081;45.946;6.140;2022-10-04T17:41:06;2.65;;;1.20;;
21837;SDS011;11081;45.946;6.140;2022-10-04T17:43:57;3.38;;;0.85;;
21837;SDS011;11081;45.946;6.140;2022-10-04T17:46:47;3.67;;;1.15;;
21837;SDS011;11081;45.946;6.140;2022-10-04T17:49:26;3.42;;;1.10;;
21837;SDS011;11081;45.946;6.140;2022-10-04T17:52:19;2.90;;;1.33;;
21837;SDS011;11081;45.946;6.140;2022-10-04T17:55:12;4.95;;;1.42;;
21837;SDS011;11081;45.946;6.140;2022-10-04T17:57:46;6.22;;;1.10;;
21837;SDS011;11081;45.946;6.140;2022-10-04T18:00:18;3.17;;;1.02;;
21837;SDS011;11081;45.946;6.140;2022-10-04T18:02:54;7.00;;;1.20;;
21837;SDS011;11081;45.946;6.140;2022-10-04T18:05:30;3.70;;;1.27;;
21837;SDS011;11081;45.946;6.140;2022-10-04T18:08:03;3.22;;;1.00;;
21837;SDS011;11081;45.946;6.140;2022-10-04T18:10:40;3.83;;;1.15;;
21837;SDS011;11081;45.946;6.140;2022-10-04T18:13:18;7.05;;;1.40;;
21837;SDS011;11081;45.946;6.140;2022-10-04T18:15:53;4.47;;;1.40;;
21837;SDS011;11081;45.946;6.140;2022-10-04T18:18:26;4.90;;;1.50;;
21837;SDS011;11081;45.946;6.140;2022-10-04T18:21:00;3.58;;;1.15;;
21837;SDS011;11081;45.946;6.140;2022-10-04T18:23:33;4.25;;;1.45;;
21837;SDS011;11081;45.946;6.140;2022-10-04T18:26:06;4.72;;;1.67;;
21837;SDS011;11081;45.946;6.140;2022-10-04T18:28:43;6.88;;;2.03;;
21837;SDS011;11081;45.946;6.140;2022-10-04T18:34:00;2.38;;;1.10;;
21837;SDS011;11081;45.946;6.140;2022-10-04T18:36:49;4.38;;;1.33;;